Time;durP1;ratioP1;P1;durP2;ratioP2;P2;SDS_P1;SDS_P2;PMS_P1;PMS_P2;Temp;Humidity;BMP_temperature;BMP_pressure;BME280_temperature;BME280_humidity;BME280_pressure;Samples;Min_cycle;Max_cycle;Signal;HPM_P1;HPM_P2
2023/08/29 00:00:10;;;;;;;6.47;5.63;;;;;;;;;;10225034;28;20084;-70
2023/08/29 00:05:06;;;;;;;6.60;5.82;;;;;;;;;;10230029;28;20045;-70
2023/08/29 00:10:03;;;;;;;6.70;6.10;;;;;;;;;;10230541;28;20553;-70
2023/08/29 00:15:03;;;;;;;6.45;5.85;;;;;;;;;;10225275;28;20580;-70
2023/08/29 00:20:00;;;;;;;8.95;5.65;;;;;;;;;;10226274;28;20053;-70
2023/08/29 00:24:57;;;;;;;7.65;5.97;;;;;;;;;;10227623;28;20056;-70
2023/08/29 00:29:54;;;;;;;7.53;6.25;;;;;;;;;;10231052;28;20068;-70
2023/08/29 00:34:50;;;;;;;7.43;6.32;;;;;;;;;;10228565;28;20059;-68
2023/08/29 00:39:46;;;;;;;7.15;5.80;;;;;;;;;;10228650;28;20518;-68
2023/08/29 00:44:43;;;;;;;9.00;6.38;;;;;;;;;;10225887;28;20053;-67
2023/08/29 00:49:39;;;;;;;13.50;6.40;;;;;;;;;;10229277;28;20052;-68
2023/08/29 00:54:35;;;;;;;7.55;6.85;;;;;;;;;;10229400;28;20048;-68
2023/08/29 00:59:32;;;;;;;7.22;6.63;;;;;;;;;;10433876;22;20108;-68
2023/08/29 01:04:28;;;;;;;7.43;6.70;;;;;;;;;;10259185;28;20083;-68
2023/08/29 01:14:40;;;;;;;7.82;7.13;;;;;;;;;;6495199;26;20144;-67
2023/08/29 01:19:39;;;;;;;7.18;6.30;;;;;;;;;;10227001;28;20128;-68
2023/08/29 01:24:42;;;;;;;8.88;7.40;;;;;;;;;;10233576;28;20052;-67
2023/08/29 01:29:39;;;;;;;7.93;7.30;;;;;;;;;;10227563;28;20454;-68
2023/08/29 01:34:36;;;;;;;9.57;6.75;;;;;;;;;;10226308;28;20057;-67
2023/08/29 01:39:32;;;;;;;12.05;7.03;;;;;;;;;;10224880;28;20061;-68
2023/08/29 01:44:28;;;;;;;7.93;7.15;;;;;;;;;;10219690;28;20053;-69
2023/08/29 01:49:25;;;;;;;8.63;6.78;;;;;;;;;;10227573;28;20108;-69
2023/08/29 01:54:21;;;;;;;7.95;7.15;;;;;;;;;;10222381;28;20048;-69
2023/08/29 01:59:18;;;;;;;7.47;6.80;;;;;;;;;;10230213;28;20077;-67
2023/08/29 02:04:14;;;;;;;7.50;6.80;;;;;;;;;;10230276;28;20125;-68
2023/08/29 02:09:11;;;;;;;7.22;6.63;;;;;;;;;;10238269;28;20144;-68
2023/08/29 02:14:10;;;;;;;8.18;7.45;;;;;;;;;;10227742;28;20062;-68
2023/08/29 02:19:06;;;;;;;8.07;7.38;;;;;;;;;;10228553;28;20049;-67
2023/08/29 02:24:03;;;;;;;7.72;7.10;;;;;;;;;;10226648;28;20045;-68
2023/08/29 02:28:59;;;;;;;8.82;8.02;;;;;;;;;;10236443;28;20096;-68
2023/08/29 02:33:56;;;;;;;8.00;7.30;;;;;;;;;;10228218;28;21412;-67
2023/08/29 02:38:53;;;;;;;8.40;7.63;;;;;;;;;;10235208;28;20473;-68
2023/08/29 02:43:50;;;;;;;8.73;7.88;;;;;;;;;;10244360;28;20394;-68
2023/08/29 02:48:46;;;;;;;9.85;7.55;;;;;;;;;;10251240;28;20551;-68
2023/08/29 02:53:42;;;;;;;8.68;7.82;;;;;;;;;;10241417;28;20128;-68
2023/08/29 02:58:39;;;;;;;8.52;7.82;;;;;;;;;;10235236;28;20052;-68
2023/08/29 03:03:35;;;;;;;9.38;8.30;;;;;;;;;;10231214;28;20183;-68
2023/08/29 03:08:32;;;;;;;9.40;8.52;;;;;;;;;;10247910;28;20067;-68
2023/08/29 03:13:28;;;;;;;9.95;9.15;;;;;;;;;;10232939;28;20393;-67
2023/08/29 03:18:27;;;;;;;9.70;8.90;;;;;;;;;;10234321;28;20762;-68
2023/08/29 03:23:24;;;;;;;9.63;8.73;;;;;;;;;;10229204;28;20115;-68
2023/08/29 03:33:33;;;;;;;9.77;8.87;;;;;;;;;;10250638;26;20389;-71
2023/08/29 03:38:29;;;;;;;9.38;8.48;;;;;;;;;;10284901;28;20041;-71
2023/08/29 03:43:28;;;;;;;10.02;9.23;;;;;;;;;;10280954;28;20037;-71
2023/08/29 03:48:25;;;;;;;9.27;8.52;;;;;;;;;;10261169;28;20045;-70
2023/08/29 03:53:24;;;;;;;9.57;8.77;;;;;;;;;;10263476;28;20053;-71
2023/08/29 03:58:21;;;;;;;9.80;9.00;;;;;;;;;;10493379;22;20089;-72
2023/08/29 04:03:17;;;;;;;17.27;9.65;;;;;;;;;;10240149;28;20040;-71
2023/08/29 04:08:14;;;;;;;9.88;8.90;;;;;;;;;;10238024;28;20060;-71
2023/08/29 04:13:10;;;;;;;9.57;8.85;;;;;;;;;;10230743;28;20058;-72
2023/08/29 04:18:07;;;;;;;11.18;10.20;;;;;;;;;;10232087;28;20061;-71
2023/08/29 04:23:07;;;;;;;10.15;9.15;;;;;;;;;;10229129;28;20049;-71
2023/08/29 04:28:03;;;;;;;10.38;9.48;;;;;;;;;;10304239;22;20079;-72
2023/08/29 04:33:01;;;;;;;10.70;9.70;;;;;;;;;;10294990;28;20127;-71
2023/08/29 04:37:57;;;;;;;11.88;10.98;;;;;;;;;;10298856;28;20415;-72
2023/08/29 04:42:53;;;;;;;11.05;10.00;;;;;;;;;;10298315;28;20067;-72
2023/08/29 04:47:50;;;;;;;12.40;11.40;;;;;;;;;;10302395;22;20115;-72
2023/08/29 04:52:46;;;;;;;11.50;10.35;;;;;;;;;;10297449;28;20649;-72
2023/08/29 04:57:42;;;;;;;12.48;11.27;;;;;;;;;;10310533;28;20052;-72
2023/08/29 05:02:39;;;;;;;12.10;11.07;;;;;;;;;;10312824;28;20453;-72
2023/08/29 05:07:35;;;;;;;11.50;10.52;;;;;;;;;;10315919;28;20110;-72
2023/08/29 05:12:32;;;;;;;13.60;12.43;;;;;;;;;;10320437;28;20507;-71
2023/08/29 05:17:28;;;;;;;13.95;12.68;;;;;;;;;;10318434;28;20767;-72
2023/08/29 05:22:25;;;;;;;14.65;12.80;;;;;;;;;;10312581;28;20048;-72
2023/08/29 05:32:21;;;;;;;13.38;12.27;;;;;;;;;;10232701;28;20437;-71
2023/08/29 05:42:25;;;;;;;14.52;12.93;;;;;;;;;;10356402;22;20084;-71
2023/08/29 05:47:21;;;;;;;14.75;13.25;;;;;;;;;;10296052;28;20076;-71
2023/08/29 05:52:17;;;;;;;15.23;13.85;;;;;;;;;;10286881;28;20660;-71
2023/08/29 06:02:19;;;;;;;14.60;13.40;;;;;;;;;;9571911;26;20049;-71
2023/08/29 06:07:15;;;;;;;14.68;13.48;;;;;;;;;;10298126;28;20472;-71
2023/08/29 06:12:12;;;;;;;14.77;13.40;;;;;;;;;;10301830;28;20072;-71
2023/08/29 06:17:08;;;;;;;13.75;12.55;;;;;;;;;;10301776;28;20060;-71
2023/08/29 06:22:04;;;;;;;16.73;13.63;;;;;;;;;;10309252;28;20044;-71
2023/08/29 06:27:01;;;;;;;14.27;13.00;;;;;;;;;;10301404;22;20083;-71
2023/08/29 06:31:58;;;;;;;15.90;14.00;;;;;;;;;;10257280;28;20056;-71
2023/08/29 06:36:54;;;;;;;13.68;12.35;;;;;;;;;;10269028;28;20060;-71
2023/08/29 06:41:50;;;;;;;13.52;12.07;;;;;;;;;;10273129;28;20468;-71
2023/08/29 06:46:48;;;;;;;14.27;11.52;;;;;;;;;;10263381;28;20056;-71
2023/08/29 06:51:44;;;;;;;14.57;12.48;;;;;;;;;;10266389;28;20064;-71
2023/08/29 06:56:40;;;;;;;13.68;12.35;;;;;;;;;;10263221;28;20491;-71
2023/08/29 07:01:37;;;;;;;12.43;11.32;;;;;;;;;;10267567;28;20056;-71
2023/08/29 07:11:44;;;;;;;13.15;11.30;;;;;;;;;;9013256;26;20041;-71
2023/08/29 07:16:55;;;;;;;11.55;10.55;;;;;;;;;;10315672;22;20084;-71
2023/08/29 07:22:41;;;;;;;11.95;11.05;;;;;;;;;;10224697;28;20045;-71
2023/08/29 07:27:59;;;;;;;10.90;10.00;;;;;;;;;;10251938;22;20409;-71
2023/08/29 07:32:56;;;;;;;11.98;10.30;;;;;;;;;;10193001;28;20112;-71
2023/08/29 07:37:52;;;;;;;10.68;9.68;;;;;;;;;;10192262;28;20089;-71
2023/08/29 07:42:49;;;;;;;10.73;9.63;;;;;;;;;;10196164;28;20057;-72
2023/08/29 07:47:45;;;;;;;10.40;9.50;;;;;;;;;;10196827;28;20081;-72
2023/08/29 07:52:41;;;;;;;11.13;9.30;;;;;;;;;;10200662;28;20080;-71
2023/08/29 07:57:38;;;;;;;10.70;9.60;;;;;;;;;;10175417;28;20532;-71
2023/08/29 08:02:38;;;;;;;9.55;8.75;;;;;;;;;;10193198;28;20744;-71
2023/08/29 08:07:34;;;;;;;9.73;8.93;;;;;;;;;;10187744;28;20085;-71
2023/08/29 08:12:31;;;;;;;10.43;9.38;;;;;;;;;;10197537;28;20073;-72
2023/08/29 08:17:28;;;;;;;10.27;9.35;;;;;;;;;;10254043;22;20135;-71
2023/08/29 08:22:24;;;;;;;10.38;9.35;;;;;;;;;;10207362;28;20050;-72
2023/08/29 08:27:20;;;;;;;11.63;9.35;;;;;;;;;;10222239;22;20053;-72
2023/08/29 08:32:17;;;;;;;8.55;7.85;;;;;;;;;;10225344;28;20061;-72
2023/08/29 08:37:45;;;;;;;9.10;8.30;;;;;;;;;;10251297;22;21204;-71
2023/08/29 08:43:04;;;;;;;8.32;7.65;;;;;;;;;;10218285;28;20065;-71
2023/08/29 08:48:01;;;;;;;7.88;7.18;;;;;;;;;;10232072;28;20500;-71
2023/08/29 08:52:58;;;;;;;15.82;10.75;;;;;;;;;;10259356;28;20057;-71
2023/08/29 08:57:55;;;;;;;8.68;7.97;;;;;;;;;;10258234;28;20046;-71
2023/08/29 09:02:52;;;;;;;9.63;7.60;;;;;;;;;;10259986;28;20060;-73
2023/08/29 09:07:49;;;;;;;8.82;7.85;;;;;;;;;;10251916;28;20079;-73
2023/08/29 09:12:50;;;;;;;10.02;9.02;;;;;;;;;;10251001;28;20111;-73
2023/08/29 09:17:51;;;;;;;11.00;10.00;;;;;;;;;;10246904;28;20048;-72
2023/08/29 09:22:47;;;;;;;11.80;10.70;;;;;;;;;;10250807;28;20053;-72
2023/08/29 09:28:05;;;;;;;11.15;10.05;;;;;;;;;;10355017;22;20049;-73
2023/08/29 09:33:06;;;;;;;10.93;9.90;;;;;;;;;;10268922;28;20080;-73
2023/08/29 09:38:03;;;;;;;8.85;8.00;;;;;;;;;;10239473;28;20096;-73
2023/08/29 09:43:00;;;;;;;10.75;9.68;;;;;;;;;;10253233;28;20063;-73
2023/08/29 09:48:00;;;;;;;8.90;8.10;;;;;;;;;;10244847;28;20081;-73
2023/08/29 09:52:57;;;;;;;11.95;8.55;;;;;;;;;;10242501;28;20049;-73
2023/08/29 09:57:53;;;;;;;8.07;7.35;;;;;;;;;;10257133;28;20053;-73
2023/08/29 10:02:55;;;;;;;7.45;6.43;;;;;;;;;;10256237;28;20487;-73
2023/08/29 10:07:55;;;;;;;9.27;6.70;;;;;;;;;;10258272;28;20428;-73
2023/08/29 10:12:53;;;;;;;6.82;5.93;;;;;;;;;;10237896;28;20511;-73
2023/08/29 10:17:50;;;;;;;6.93;6.43;;;;;;;;;;10263415;28;20049;-73
2023/08/29 10:22:48;;;;;;;6.88;6.30;;;;;;;;;;10257001;28;20052;-71
2023/08/29 10:27:44;;;;;;;6.15;5.65;;;;;;;;;;10253152;28;20049;-73
2023/08/29 10:32:42;;;;;;;6.30;5.80;;;;;;;;;;10255770;28;20080;-73
2023/08/29 10:37:38;;;;;;;6.85;6.15;;;;;;;;;;10254580;28;20080;-71
2023/08/29 10:43:00;;;;;;;6.78;6.00;;;;;;;;;;10255650;28;20118;-72
2023/08/29 10:47:57;;;;;;;6.47;5.97;;;;;;;;;;10315264;22;20041;-72
2023/08/29 10:52:56;;;;;;;6.25;5.75;;;;;;;;;;10265555;28;20081;-72
2023/08/29 10:57:52;;;;;;;7.57;6.50;;;;;;;;;;10254426;28;20052;-72
2023/08/29 11:02:49;;;;;;;6.43;5.90;;;;;;;;;;10235195;28;20103;-72
2023/08/29 11:07:45;;;;;;;6.68;6.18;;;;;;;;;;10258330;28;20390;-72
2023/08/29 11:13:00;;;;;;;6.43;5.93;;;;;;;;;;10262957;28;20174;-72
2023/08/29 11:18:17;;;;;;;6.00;5.50;;;;;;;;;;10266437;28;20053;-72
2023/08/29 11:23:14;;;;;;;6.85;6.22;;;;;;;;;;10256733;28;20467;-72
2023/08/29 11:29:01;;;;;;;6.57;5.97;;;;;;;;;;10301052;22;20044;-72
2023/08/29 11:34:21;;;;;;;7.68;6.97;;;;;;;;;;10237951;28;20052;-72
2023/08/29 11:39:21;;;;;;;7.10;6.60;;;;;;;;;;10357729;22;20053;-72
2023/08/29 11:44:18;;;;;;;7.10;6.45;;;;;;;;;;10219538;28;20055;-72
2023/08/29 11:49:34;;;;;;;7.30;6.53;;;;;;;;;;10318645;23;20057;-72
2023/08/29 11:54:47;;;;;;;6.80;5.95;;;;;;;;;;10247290;28;20655;-72
2023/08/29 11:59:43;;;;;;;;;;;;;;;;;;10216759;22;20066;-72
2023/08/29 12:04:41;;;;;;;7.43;6.72;;;;;;;;;;10188611;28;19928;-72
2023/08/29 12:09:39;;;;;;;6.60;6.00;;;;;;;;;;10178308;28;20050;-72
2023/08/29 12:14:48;;;;;;;6.57;6.07;;;;;;;;;;10164103;28;20077;-72
2023/08/29 12:25:09;;;;;;;6.50;6.00;;;;;;;;;;10324686;22;20162;-72
2023/08/29 12:30:06;;;;;;;6.53;6.00;;;;;;;;;;10305220;22;20274;-72
2023/08/29 12:35:02;;;;;;;6.43;5.93;;;;;;;;;;10278765;28;20041;-71
2023/08/29 12:40:38;;;;;;;;;;;;;;;;;;;;;
2023/08/29 12:45:55;;;;;;;6.70;6.20;;;;;;;;;;10239666;28;20111;-72
2023/08/29 12:50:55;;;;;;;6.32;5.82;;;;;;;;;;10505009;22;20040;-72
2023/08/29 12:55:52;;;;;;;6.50;5.90;;;;;;;;;;10296468;28;20041;-72
2023/08/29 13:00:48;;;;;;;6.32;5.55;;;;;;;;;;10293701;28;20580;-72
2023/08/29 13:05:44;;;;;;;6.20;5.70;;;;;;;;;;10308578;28;20045;-72
2023/08/29 13:10:41;;;;;;;6.88;6.28;;;;;;;;;;10298348;28;20052;-72
2023/08/29 13:15:37;;;;;;;6.45;5.95;;;;;;;;;;10307260;28;20056;-72
2023/08/29 13:20:45;;;;;;;6.80;6.30;;;;;;;;;;10319279;22;20069;-72
2023/08/29 13:25:42;;;;;;;6.65;6.15;;;;;;;;;;10253212;28;20045;-72
2023/08/29 13:30:38;;;;;;;6.13;5.53;;;;;;;;;;10264364;28;20049;-72
2023/08/29 13:35:35;;;;;;;6.72;6.13;;;;;;;;;;10266347;28;20055;-72
2023/08/29 13:40:32;;;;;;;6.32;5.82;;;;;;;;;;10255531;28;20049;-72
2023/08/29 13:45:29;;;;;;;7.07;5.80;;;;;;;;;;10265140;28;20041;-72
2023/08/29 13:50:26;;;;;;;6.45;5.95;;;;;;;;;;10255752;28;20049;-71
2023/08/29 13:55:22;;;;;;;6.50;6.00;;;;;;;;;;10250369;28;20102;-72
2023/08/29 14:00:19;;;;;;;6.15;5.63;;;;;;;;;;10284934;22;20050;-71
2023/08/29 14:05:15;;;;;;;6.03;5.53;;;;;;;;;;10254119;28;20734;-72
2023/08/29 14:10:11;;;;;;;5.53;5.13;;;;;;;;;;10256200;28;20076;-72
2023/08/29 14:15:08;;;;;;;5.50;5.00;;;;;;;;;;10252560;28;20057;-72
2023/08/29 14:20:05;;;;;;;5.68;5.25;;;;;;;;;;10247198;28;20070;-71
2023/08/29 14:25:01;;;;;;;5.53;5.03;;;;;;;;;;10256163;28;20049;-72
2023/08/29 14:29:57;;;;;;;6.03;5.53;;;;;;;;;;10232732;28;20056;-72
2023/08/29 14:34:54;;;;;;;5.88;5.25;;;;;;;;;;10243615;28;20049;-72
2023/08/29 14:39:50;;;;;;;5.78;5.20;;;;;;;;;;10254672;28;20044;-72
2023/08/29 14:44:46;;;;;;;5.45;5.03;;;;;;;;;;10255409;28;20048;-72
2023/08/29 14:50:01;;;;;;;5.18;4.78;;;;;;;;;;10426632;22;20071;-72
2023/08/29 14:54:58;;;;;;;5.53;5.13;;;;;;;;;;10298082;28;20052;-72
2023/08/29 14:59:55;;;;;;;5.22;4.72;;;;;;;;;;10305110;28;20411;-72
2023/08/29 15:04:51;;;;;;;5.53;5.03;;;;;;;;;;10304550;28;20044;-71
2023/08/29 15:09:48;;;;;;;5.75;5.25;;;;;;;;;;10309417;23;20098;-71
2023/08/29 15:14:44;;;;;;;5.82;5.03;;;;;;;;;;10305453;28;20107;-71
2023/08/29 15:20:09;;;;;;;5.45;4.95;;;;;;;;;;10287642;22;20056;-71
2023/08/29 15:25:06;;;;;;;7.60;4.63;;;;;;;;;;10219775;28;20085;-71
2023/08/29 15:30:05;;;;;;;5.70;5.20;;;;;;;;;;10210806;28;20132;-72
2023/08/29 15:35:05;;;;;;;6.72;5.13;;;;;;;;;;10219022;28;20049;-71
2023/08/29 15:40:01;;;;;;;5.97;5.47;;;;;;;;;;10209809;28;20077;-71
2023/08/29 15:44:58;;;;;;;6.00;5.50;;;;;;;;;;10226240;28;20057;-72
2023/08/29 15:49:54;;;;;;;5.93;5.43;;;;;;;;;;10213289;28;20060;-72
2023/08/29 15:54:51;;;;;;;6.22;5.72;;;;;;;;;;10202308;28;20100;-72
2023/08/29 15:59:50;;;;;;;6.55;6.05;;;;;;;;;;10287292;22;20053;-72
2023/08/29 16:04:46;;;;;;;6.13;5.63;;;;;;;;;;10187005;28;20066;-72
2023/08/29 16:09:42;;;;;;;6.00;5.60;;;;;;;;;;10182449;28;20045;-72
2023/08/29 16:14:38;;;;;;;6.00;5.43;;;;;;;;;;10188035;28;20065;-72
2023/08/29 16:19:35;;;;;;;6.00;5.50;;;;;;;;;;10186972;28;20457;-72
2023/08/29 16:24:31;;;;;;;6.05;5.55;;;;;;;;;;10191433;28;20076;-72
2023/08/29 16:30:14;;;;;;;6.40;5.80;;;;;;;;;;10339863;22;20065;-72
2023/08/29 16:35:22;;;;;;;5.90;5.38;;;;;;;;;;10226219;28;20053;-72
2023/08/29 16:40:18;;;;;;;5.93;5.32;;;;;;;;;;10217087;28;20061;-72
2023/08/29 16:45:14;;;;;;;5.85;5.32;;;;;;;;;;10207849;28;20088;-71
2023/08/29 16:50:11;;;;;;;5.90;5.30;;;;;;;;;;10211865;28;20049;-71
2023/08/29 16:55:07;;;;;;;6.22;5.63;;;;;;;;;;10210261;28;20493;-71
2023/08/29 17:00:09;;;;;;;8.25;6.30;;;;;;;;;;10213615;28;20052;-72
2023/08/29 17:05:06;;;;;;;6.20;5.70;;;;;;;;;;10213873;28;20091;-72
2023/08/29 17:10:03;;;;;;;6.32;5.70;;;;;;;;;;10221496;28;20053;-71
2023/08/29 17:14:59;;;;;;;6.18;5.57;;;;;;;;;;10222964;28;20053;-71
2023/08/29 17:19:56;;;;;;;7.80;7.10;;;;;;;;;;10225474;28;20489;-72
2023/08/29 17:24:52;;;;;;;7.63;6.47;;;;;;;;;;10225501;28;20081;-72
2023/08/29 17:29:48;;;;;;;8.23;7.40;;;;;;;;;;10222430;28;20513;-72
2023/08/29 17:34:45;;;;;;;6.40;5.80;;;;;;;;;;10219501;28;20089;-72
2023/08/29 17:39:42;;;;;;;7.03;6.35;;;;;;;;;;10215056;22;20145;-72
2023/08/29 17:44:38;;;;;;;6.85;5.40;;;;;;;;;;10265197;28;20085;-72
2023/08/29 17:49:35;;;;;;;7.45;6.75;;;;;;;;;;10263944;28;20099;-71
2023/08/29 17:54:31;;;;;;;5.40;5.00;;;;;;;;;;10274172;28;20490;-71
2023/08/29 17:59:27;;;;;;;5.90;5.38;;;;;;;;;;10238549;28;20094;-71
2023/08/29 18:04:23;;;;;;;6.40;5.72;;;;;;;;;;10264988;28;20048;-71
2023/08/29 18:09:20;;;;;;;6.35;5.72;;;;;;;;;;10276787;28;20055;-71
2023/08/29 18:14:16;;;;;;;6.40;5.90;;;;;;;;;;10277722;28;20057;-71
2023/08/29 18:19:12;;;;;;;6.07;5.47;;;;;;;;;;10266912;28;20061;-71
2023/08/29 18:24:11;;;;;;;6.70;6.10;;;;;;;;;;10270076;28;20056;-71
2023/08/29 18:29:08;;;;;;;6.95;6.28;;;;;;;;;;10265264;28;20087;-72
2023/08/29 18:34:04;;;;;;;6.32;5.72;;;;;;;;;;10258052;28;20496;-71
2023/08/29 18:39:00;;;;;;;8.75;6.78;;;;;;;;;;10289024;22;20530;-72
2023/08/29 18:43:57;;;;;;;7.60;6.88;;;;;;;;;;10246986;28;20051;-71
2023/08/29 18:48:54;;;;;;;7.18;6.53;;;;;;;;;;10240376;28;20692;-72
2023/08/29 18:53:50;;;;;;;7.50;6.85;;;;;;;;;;10222188;28;20111;-71
2023/08/29 18:58:47;;;;;;;7.40;6.78;;;;;;;;;;10223440;28;20053;-71
2023/08/29 19:03:43;;;;;;;7.07;6.38;;;;;;;;;;10226678;28;20077;-71
2023/08/29 19:08:39;;;;;;;7.30;6.20;;;;;;;;;;10224731;28;20398;-71
2023/08/29 19:13:36;;;;;;;9.60;6.93;;;;;;;;;;10226925;28;20567;-71
2023/08/29 19:18:32;;;;;;;7.72;7.03;;;;;;;;;;10226978;28;20038;-71
2023/08/29 19:23:28;;;;;;;9.40;7.35;;;;;;;;;;10208988;28;20087;-71
2023/08/29 19:28:25;;;;;;;8.23;7.47;;;;;;;;;;10225313;28;20061;-72
2023/08/29 19:33:21;;;;;;;11.20;7.80;;;;;;;;;;10223121;28;20108;-71
2023/08/29 19:38:17;;;;;;;10.45;8.77;;;;;;;;;;10213266;28;20505;-71
2023/08/29 19:43:14;;;;;;;8.77;7.88;;;;;;;;;;10225050;28;20061;-71
2023/08/29 19:48:10;;;;;;;9.50;7.90;;;;;;;;;;10211964;28;20425;-71
2023/08/29 19:53:07;;;;;;;8.40;7.45;;;;;;;;;;10230939;28;20041;-71
2023/08/29 20:03:09;;;;;;;7.60;6.90;;;;;;;;;;10447439;22;20072;-71
2023/08/29 20:08:05;;;;;;;8.00;7.20;;;;;;;;;;10261718;28;20050;-71
2023/08/29 20:13:03;;;;;;;7.53;6.75;;;;;;;;;;10269258;28;20040;-71
2023/08/29 20:17:59;;;;;;;8.68;7.30;;;;;;;;;;10247276;28;20044;-70
2023/08/29 20:22:56;;;;;;;7.70;6.97;;;;;;;;;;10271451;28;20041;-70
2023/08/29 20:27:52;;;;;;;7.95;7.25;;;;;;;;;;10239312;28;20071;-70
2023/08/29 20:32:49;;;;;;;7.68;6.93;;;;;;;;;;10245398;28;20037;-70
2023/08/29 20:37:48;;;;;;;8.23;7.40;;;;;;;;;;10283484;23;20506;-70
2023/08/29 20:42:54;;;;;;;8.15;7.32;;;;;;;;;;10235405;28;20057;-70
2023/08/29 20:47:51;;;;;;;8.15;7.35;;;;;;;;;;10254542;28;20061;-71
2023/08/29 20:52:47;;;;;;;7.80;6.80;;;;;;;;;;10257097;28;20701;-70
2023/08/29 20:57:43;;;;;;;8.80;7.90;;;;;;;;;;10252982;28;20045;-70
2023/08/29 21:02:40;;;;;;;8.18;6.47;;;;;;;;;;10243790;28;20050;-70
2023/08/29 21:07:37;;;;;;;9.68;6.72;;;;;;;;;;10259007;28;20128;-70
2023/08/29 21:12:33;;;;;;;8.35;7.38;;;;;;;;;;10242688;28;20053;-69
2023/08/29 21:17:29;;;;;;;11.23;6.75;;;;;;;;;;10250962;28;20065;-71
2023/08/29 21:22:26;;;;;;;12.73;7.15;;;;;;;;;;10260361;28;20053;-73
2023/08/29 21:27:22;;;;;;;9.80;7.55;;;;;;;;;;10266792;28;20063;-69
2023/08/29 21:32:18;;;;;;;9.32;7.75;;;;;;;;;;10271069;28;20044;-69
2023/08/29 21:37:15;;;;;;;9.60;7.13;;;;;;;;;;10256747;28;20532;-69
2023/08/29 21:42:11;;;;;;;9.18;8.02;;;;;;;;;;10271286;28;20565;-70
2023/08/29 21:47:07;;;;;;;8.32;7.40;;;;;;;;;;10256411;28;20056;-69
2023/08/29 21:52:04;;;;;;;12.85;7.45;;;;;;;;;;10279571;28;20507;-69
2023/08/29 21:57:00;;;;;;;9.93;8.40;;;;;;;;;;10242436;28;20139;-69
2023/08/29 22:01:56;;;;;;;9.35;8.07;;;;;;;;;;10263890;28;20041;-69
2023/08/29 22:06:53;;;;;;;9.05;7.38;;;;;;;;;;10244576;28;20093;-69
2023/08/29 22:11:49;;;;;;;11.50;7.95;;;;;;;;;;10243506;28;20092;-69
2023/08/29 22:16:45;;;;;;;8.57;7.78;;;;;;;;;;10252471;28;20064;-69
2023/08/29 22:21:41;;;;;;;9.20;8.27;;;;;;;;;;10274803;28;20049;-69
2023/08/29 22:26:38;;;;;;;9.32;8.07;;;;;;;;;;10266123;28;20053;-69
2023/08/29 22:31:34;;;;;;;16.05;9.10;;;;;;;;;;10273566;28;20060;-69
2023/08/29 22:36:30;;;;;;;10.68;8.00;;;;;;;;;;10272130;28;20418;-69
2023/08/29 22:41:27;;;;;;;9.05;8.18;;;;;;;;;;10271000;28;20099;-68
2023/08/29 22:46:30;;;;;;;11.82;8.48;;;;;;;;;;10265302;28;20061;-69
2023/08/29 22:51:26;;;;;;;9.70;8.65;;;;;;;;;;10274067;28;20040;-68
2023/08/29 22:56:22;;;;;;;9.35;8.38;;;;;;;;;;10270761;28;20083;-68
2023/08/29 23:01:19;;;;;;;9.00;8.02;;;;;;;;;;10262705;28;20508;-69
2023/08/29 23:06:18;;;;;;;8.48;7.63;;;;;;;;;;10257781;28;20531;-68
2023/08/29 23:11:18;;;;;;;10.10;7.32;;;;;;;;;;10265851;28;20136;-69
2023/08/29 23:16:15;;;;;;;9.75;8.80;;;;;;;;;;10257726;28;20045;-69
2023/08/29 23:21:11;;;;;;;10.05;8.18;;;;;;;;;;10244895;28;20041;-69
2023/08/29 23:26:09;;;;;;;10.32;8.35;;;;;;;;;;10253424;28;20059;-69
2023/08/29 23:31:06;;;;;;;9.57;7.75;;;;;;;;;;10264015;28;20049;-69
2023/08/29 23:36:02;;;;;;;10.13;8.57;;;;;;;;;;10271110;28;20520;-69
2023/08/29 23:40:59;;;;;;;9.80;8.48;;;;;;;;;;10269701;28;20049;-69
2023/08/29 23:45:55;;;;;;;8.63;7.72;;;;;;;;;;10264461;28;20087;-69
2023/08/29 23:50:51;;;;;;;10.55;8.60;;;;;;;;;;10247725;28;20056;-69
2023/08/29 23:55:48;;;;;;;8.75;7.90;;;;;;;;;;10262020;28;20056;-69
